sensor_id;sensor_type;location;lat;lon;timestamp;P1;durP1;ratioP1;P2;durP2;ratioP2
13891;SDS011;7016;48.172;8.058;2023-09-08T00:01:55;8.88;;;6.72;;
13891;SDS011;7016;48.172;8.058;2023-09-08T00:04:21;8.38;;;6.55;;
13891;SDS011;7016;48.172;8.058;2023-09-08T00:06:46;9.15;;;7.05;;
13891;SDS011;7016;48.172;8.058;2023-09-08T00:09:12;10.10;;;6.65;;
13891;SDS011;7016;48.172;8.058;2023-09-08T00:11:38;9.23;;;7.03;;
13891;SDS011;7016;48.172;8.058;2023-09-08T00:14:04;9.50;;;6.88;;
13891;SDS011;7016;48.172;8.058;2023-09-08T00:16:30;10.07;;;7.32;;
13891;SDS011;7016;48.172;8.058;2023-09-08T00:18:56;9.85;;;7.05;;
13891;SDS011;7016;48.172;8.058;2023-09-08T00:21:23;9.50;;;6.90;;
13891;SDS011;7016;48.172;8.058;2023-09-08T00:23:50;10.80;;;7.75;;
13891;SDS011;7016;48.172;8.058;2023-09-08T00:26:16;11.85;;;7.32;;
13891;SDS011;7016;48.172;8.058;2023-09-08T00:28:42;8.98;;;6.70;;
13891;SDS011;7016;48.172;8.058;2023-09-08T00:31:08;11.25;;;7.57;;
13891;SDS011;7016;48.172;8.058;2023-09-08T00:33:33;11.05;;;7.00;;
13891;SDS011;7016;48.172;8.058;2023-09-08T00:35:59;8.95;;;6.60;;
13891;SDS011;7016;48.172;8.058;2023-09-08T00:38:24;9.65;;;7.97;;
13891;SDS011;7016;48.172;8.058;2023-09-08T00:40:51;8.43;;;7.20;;
13891;SDS011;7016;48.172;8.058;2023-09-08T00:43:17;13.18;;;8.15;;
13891;SDS011;7016;48.172;8.058;2023-09-08T00:45:43;10.75;;;7.95;;
13891;SDS011;7016;48.172;8.058;2023-09-08T00:48:10;9.90;;;7.70;;
13891;SDS011;7016;48.172;8.058;2023-09-08T00:50:36;13.27;;;7.55;;
13891;SDS011;7016;48.172;8.058;2023-09-08T00:53:02;12.43;;;7.47;;
13891;SDS011;7016;48.172;8.058;2023-09-08T00:55:29;9.45;;;7.20;;
13891;SDS011;7016;48.172;8.058;2023-09-08T00:57:56;9.45;;;7.10;;
13891;SDS011;7016;48.172;8.058;2023-09-08T01:00:23;11.88;;;7.50;;
13891;SDS011;7016;48.172;8.058;2023-09-08T01:02:50;9.93;;;7.97;;
13891;SDS011;7016;48.172;8.058;2023-09-08T01:05:15;9.88;;;7.72;;
13891;SDS011;7016;48.172;8.058;2023-09-08T01:07:41;12.07;;;7.47;;
13891;SDS011;7016;48.172;8.058;2023-09-08T01:10:08;10.75;;;8.07;;
13891;SDS011;7016;48.172;8.058;2023-09-08T01:12:34;8.57;;;7.10;;
13891;SDS011;7016;48.172;8.058;2023-09-08T01:15:03;7.80;;;6.72;;
13891;SDS011;7016;48.172;8.058;2023-09-08T01:17:30;12.65;;;7.68;;
13891;SDS011;7016;48.172;8.058;2023-09-08T01:19:56;8.73;;;7.63;;
13891;SDS011;7016;48.172;8.058;2023-09-08T01:22:46;10.63;;;7.38;;
13891;SDS011;7016;48.172;8.058;2023-09-08T01:25:26;9.15;;;7.50;;
13891;SDS011;7016;48.172;8.058;2023-09-08T01:27:54;10.90;;;8.15;;
13891;SDS011;7016;48.172;8.058;2023-09-08T01:30:23;13.75;;;8.00;;
13891;SDS011;7016;48.172;8.058;2023-09-08T01:32:50;10.88;;;7.88;;
13891;SDS011;7016;48.172;8.058;2023-09-08T01:35:17;11.43;;;8.15;;
13891;SDS011;7016;48.172;8.058;2023-09-08T01:37:46;12.02;;;8.48;;
13891;SDS011;7016;48.172;8.058;2023-09-08T01:40:13;9.80;;;7.40;;
13891;SDS011;7016;48.172;8.058;2023-09-08T01:42:39;9.52;;;7.60;;
13891;SDS011;7016;48.172;8.058;2023-09-08T01:45:05;10.23;;;7.25;;
13891;SDS011;7016;48.172;8.058;2023-09-08T01:47:32;8.10;;;7.13;;
13891;SDS011;7016;48.172;8.058;2023-09-08T01:49:58;9.68;;;7.90;;
13891;SDS011;7016;48.172;8.058;2023-09-08T01:52:24;11.18;;;7.95;;
13891;SDS011;7016;48.172;8.058;2023-09-08T01:54:50;8.85;;;7.85;;
13891;SDS011;7016;48.172;8.058;2023-09-08T01:57:16;9.52;;;7.30;;
13891;SDS011;7016;48.172;8.058;2023-09-08T01:59:42;9.38;;;6.95;;
13891;SDS011;7016;48.172;8.058;2023-09-08T02:02:09;11.68;;;8.00;;
13891;SDS011;7016;48.172;8.058;2023-09-08T02:04:36;14.00;;;7.38;;
13891;SDS011;7016;48.172;8.058;2023-09-08T02:07:01;10.43;;;7.78;;
13891;SDS011;7016;48.172;8.058;2023-09-08T02:09:35;8.45;;;7.65;;
13891;SDS011;7016;48.172;8.058;2023-09-08T02:12:02;12.20;;;8.20;;
13891;SDS011;7016;48.172;8.058;2023-09-08T02:14:29;11.40;;;7.47;;
13891;SDS011;7016;48.172;8.058;2023-09-08T02:16:55;10.48;;;7.82;;
13891;SDS011;7016;48.172;8.058;2023-09-08T02:19:21;11.35;;;8.02;;
13891;SDS011;7016;48.172;8.058;2023-09-08T02:21:47;10.65;;;8.15;;
13891;SDS011;7016;48.172;8.058;2023-09-08T02:24:13;13.48;;;8.00;;
13891;SDS011;7016;48.172;8.058;2023-09-08T02:26:39;11.38;;;7.40;;
13891;SDS011;7016;48.172;8.058;2023-09-08T02:29:05;10.02;;;7.75;;
13891;SDS011;7016;48.172;8.058;2023-09-08T02:31:32;11.48;;;8.20;;
13891;SDS011;7016;48.172;8.058;2023-09-08T02:33:58;11.05;;;7.93;;
13891;SDS011;7016;48.172;8.058;2023-09-08T02:36:23;10.50;;;7.30;;
13891;SDS011;7016;48.172;8.058;2023-09-08T02:38:55;15.98;;;7.82;;
13891;SDS011;7016;48.172;8.058;2023-09-08T02:41:22;10.75;;;7.43;;
13891;SDS011;7016;48.172;8.058;2023-09-08T02:43:48;9.27;;;8.20;;
13891;SDS011;7016;48.172;8.058;2023-09-08T02:46:14;10.40;;;8.07;;
13891;SDS011;7016;48.172;8.058;2023-09-08T02:48:40;8.70;;;7.35;;
13891;SDS011;7016;48.172;8.058;2023-09-08T02:51:06;10.45;;;7.88;;
13891;SDS011;7016;48.172;8.058;2023-09-08T02:53:32;12.80;;;8.45;;
13891;SDS011;7016;48.172;8.058;2023-09-08T02:56:00;16.10;;;8.95;;
13891;SDS011;7016;48.172;8.058;2023-09-08T02:58:26;10.60;;;8.50;;
13891;SDS011;7016;48.172;8.058;2023-09-08T03:00:52;8.77;;;7.50;;
13891;SDS011;7016;48.172;8.058;2023-09-08T03:03:18;9.63;;;7.82;;
13891;SDS011;7016;48.172;8.058;2023-09-08T03:05:44;11.73;;;8.73;;
13891;SDS011;7016;48.172;8.058;2023-09-08T03:08:10;11.32;;;7.55;;
13891;SDS011;7016;48.172;8.058;2023-09-08T03:10:36;12.57;;;8.18;;
13891;SDS011;7016;48.172;8.058;2023-09-08T03:13:02;9.88;;;7.80;;
13891;SDS011;7016;48.172;8.058;2023-09-08T03:15:28;9.98;;;7.80;;
13891;SDS011;7016;48.172;8.058;2023-09-08T03:17:54;9.55;;;8.48;;
13891;SDS011;7016;48.172;8.058;2023-09-08T03:20:20;13.38;;;8.50;;
13891;SDS011;7016;48.172;8.058;2023-09-08T03:22:46;9.32;;;8.30;;
13891;SDS011;7016;48.172;8.058;2023-09-08T03:25:15;10.65;;;8.85;;
13891;SDS011;7016;48.172;8.058;2023-09-08T03:27:41;9.30;;;8.07;;
13891;SDS011;7016;48.172;8.058;2023-09-08T03:30:07;9.93;;;8.10;;
13891;SDS011;7016;48.172;8.058;2023-09-08T03:32:33;11.20;;;8.43;;
13891;SDS011;7016;48.172;8.058;2023-09-08T03:34:59;12.00;;;9.10;;
13891;SDS011;7016;48.172;8.058;2023-09-08T03:37:24;11.90;;;9.02;;
13891;SDS011;7016;48.172;8.058;2023-09-08T03:39:51;11.85;;;8.95;;
13891;SDS011;7016;48.172;8.058;2023-09-08T03:42:17;12.40;;;8.50;;
13891;SDS011;7016;48.172;8.058;2023-09-08T03:44:43;12.07;;;8.77;;
13891;SDS011;7016;48.172;8.058;2023-09-08T03:47:09;11.18;;;8.43;;
13891;SDS011;7016;48.172;8.058;2023-09-08T03:49:34;15.05;;;9.52;;
13891;SDS011;7016;48.172;8.058;2023-09-08T03:52:00;11.82;;;8.80;;
13891;SDS011;7016;48.172;8.058;2023-09-08T03:54:26;23.90;;;9.52;;
13891;SDS011;7016;48.172;8.058;2023-09-08T03:56:51;10.75;;;8.00;;
13891;SDS011;7016;48.172;8.058;2023-09-08T03:59:17;11.63;;;8.43;;
13891;SDS011;7016;48.172;8.058;2023-09-08T04:01:43;13.90;;;8.18;;
13891;SDS011;7016;48.172;8.058;2023-09-08T04:04:08;10.20;;;8.85;;
13891;SDS011;7016;48.172;8.058;2023-09-08T04:06:34;11.38;;;9.15;;
13891;SDS011;7016;48.172;8.058;2023-09-08T04:09:00;9.98;;;8.98;;
13891;SDS011;7016;48.172;8.058;2023-09-08T04:11:25;15.38;;;9.02;;
13891;SDS011;7016;48.172;8.058;2023-09-08T04:13:51;12.57;;;9.25;;
13891;SDS011;7016;48.172;8.058;2023-09-08T04:16:17;9.63;;;8.25;;
13891;SDS011;7016;48.172;8.058;2023-09-08T04:18:43;13.80;;;9.68;;
13891;SDS011;7016;48.172;8.058;2023-09-08T04:21:09;11.02;;;8.80;;
13891;SDS011;7016;48.172;8.058;2023-09-08T04:23:35;10.95;;;9.77;;
13891;SDS011;7016;48.172;8.058;2023-09-08T04:26:01;11.02;;;9.32;;
13891;SDS011;7016;48.172;8.058;2023-09-08T04:28:27;9.65;;;8.63;;
13891;SDS011;7016;48.172;8.058;2023-09-08T04:30:52;9.25;;;8.30;;
13891;SDS011;7016;48.172;8.058;2023-09-08T04:33:18;12.70;;;8.80;;
13891;SDS011;7016;48.172;8.058;2023-09-08T04:35:44;11.93;;;10.02;;
13891;SDS011;7016;48.172;8.058;2023-09-08T04:38:09;11.20;;;9.02;;
13891;SDS011;7016;48.172;8.058;2023-09-08T04:40:36;16.05;;;10.18;;
13891;SDS011;7016;48.172;8.058;2023-09-08T04:43:04;13.70;;;9.38;;
13891;SDS011;7016;48.172;8.058;2023-09-08T04:45:30;9.95;;;8.02;;
13891;SDS011;7016;48.172;8.058;2023-09-08T04:47:56;13.57;;;9.38;;
13891;SDS011;7016;48.172;8.058;2023-09-08T04:50:22;14.30;;;8.07;;
13891;SDS011;7016;48.172;8.058;2023-09-08T04:52:47;9.38;;;8.38;;
13891;SDS011;7016;48.172;8.058;2023-09-08T04:55:13;10.30;;;8.90;;
13891;SDS011;7016;48.172;8.058;2023-09-08T04:57:39;11.57;;;9.07;;
13891;SDS011;7016;48.172;8.058;2023-09-08T05:00:05;13.77;;;9.52;;
13891;SDS011;7016;48.172;8.058;2023-09-08T05:02:31;10.80;;;8.82;;
13891;SDS011;7016;48.172;8.058;2023-09-08T05:04:57;14.15;;;9.23;;
13891;SDS011;7016;48.172;8.058;2023-09-08T05:07:23;11.90;;;8.52;;
13891;SDS011;7016;48.172;8.058;2023-09-08T05:09:49;12.25;;;8.88;;
13891;SDS011;7016;48.172;8.058;2023-09-08T05:12:14;12.25;;;9.57;;
13891;SDS011;7016;48.172;8.058;2023-09-08T05:14:40;11.20;;;9.23;;
13891;SDS011;7016;48.172;8.058;2023-09-08T05:17:06;11.80;;;8.57;;
13891;SDS011;7016;48.172;8.058;2023-09-08T05:19:32;12.27;;;9.07;;
13891;SDS011;7016;48.172;8.058;2023-09-08T05:21:57;10.23;;;8.65;;
13891;SDS011;7016;48.172;8.058;2023-09-08T05:24:23;10.45;;;8.73;;
13891;SDS011;7016;48.172;8.058;2023-09-08T05:26:50;10.82;;;8.50;;
13891;SDS011;7016;48.172;8.058;2023-09-08T05:29:16;10.23;;;8.68;;
13891;SDS011;7016;48.172;8.058;2023-09-08T05:31:42;11.38;;;8.45;;
13891;SDS011;7016;48.172;8.058;2023-09-08T05:34:08;11.63;;;9.30;;
13891;SDS011;7016;48.172;8.058;2023-09-08T05:36:34;11.90;;;9.77;;
13891;SDS011;7016;48.172;8.058;2023-09-08T05:39:02;11.00;;;9.05;;
13891;SDS011;7016;48.172;8.058;2023-09-08T05:41:27;11.80;;;8.68;;
13891;SDS011;7016;48.172;8.058;2023-09-08T05:43:53;12.32;;;8.60;;
13891;SDS011;7016;48.172;8.058;2023-09-08T05:46:19;10.32;;;8.48;;
13891;SDS011;7016;48.172;8.058;2023-09-08T05:48:45;10.13;;;9.07;;
13891;SDS011;7016;48.172;8.058;2023-09-08T05:51:12;11.77;;;9.55;;
13891;SDS011;7016;48.172;8.058;2023-09-08T05:53:39;11.77;;;8.88;;
13891;SDS011;7016;48.172;8.058;2023-09-08T05:56:05;12.32;;;9.63;;
13891;SDS011;7016;48.172;8.058;2023-09-08T05:58:31;13.18;;;8.45;;
13891;SDS011;7016;48.172;8.058;2023-09-08T06:00:58;11.15;;;8.63;;
13891;SDS011;7016;48.172;8.058;2023-09-08T06:03:28;10.80;;;8.55;;
13891;SDS011;7016;48.172;8.058;2023-09-08T06:05:54;13.38;;;9.05;;
13891;SDS011;7016;48.172;8.058;2023-09-08T06:08:20;10.80;;;8.63;;
13891;SDS011;7016;48.172;8.058;2023-09-08T06:10:45;13.00;;;9.80;;
13891;SDS011;7016;48.172;8.058;2023-09-08T06:13:11;10.38;;;9.20;;
13891;SDS011;7016;48.172;8.058;2023-09-08T06:15:37;11.73;;;8.30;;
13891;SDS011;7016;48.172;8.058;2023-09-08T06:18:02;9.70;;;8.63;;
13891;SDS011;7016;48.172;8.058;2023-09-08T06:20:28;11.45;;;9.25;;
13891;SDS011;7016;48.172;8.058;2023-09-08T06:22:54;12.07;;;9.77;;
13891;SDS011;7016;48.172;8.058;2023-09-08T06:25:20;12.45;;;9.48;;
13891;SDS011;7016;48.172;8.058;2023-09-08T06:27:45;16.25;;;10.02;;
13891;SDS011;7016;48.172;8.058;2023-09-08T06:30:11;13.35;;;10.07;;
13891;SDS011;7016;48.172;8.058;2023-09-08T06:32:41;20.80;;;10.63;;
13891;SDS011;7016;48.172;8.058;2023-09-08T06:35:07;12.60;;;10.18;;
13891;SDS011;7016;48.172;8.058;2023-09-08T06:37:37;11.88;;;10.15;;
13891;SDS011;7016;48.172;8.058;2023-09-08T06:40:04;12.30;;;10.43;;
13891;SDS011;7016;48.172;8.058;2023-09-08T06:42:31;15.20;;;10.68;;
13891;SDS011;7016;48.172;8.058;2023-09-08T06:44:57;11.82;;;10.10;;
13891;SDS011;7016;48.172;8.058;2023-09-08T06:47:24;13.07;;;10.02;;
13891;SDS011;7016;48.172;8.058;2023-09-08T06:49:50;12.52;;;10.50;;
13891;SDS011;7016;48.172;8.058;2023-09-08T06:52:16;16.40;;;11.73;;
13891;SDS011;7016;48.172;8.058;2023-09-08T06:54:42;18.33;;;12.23;;
13891;SDS011;7016;48.172;8.058;2023-09-08T06:57:10;14.07;;;12.45;;
13891;SDS011;7016;48.172;8.058;2023-09-08T06:59:39;16.63;;;13.05;;
13891;SDS011;7016;48.172;8.058;2023-09-08T07:02:05;16.38;;;12.73;;
13891;SDS011;7016;48.172;8.058;2023-09-08T07:04:32;15.10;;;12.20;;
13891;SDS011;7016;48.172;8.058;2023-09-08T07:06:57;15.38;;;13.00;;
13891;SDS011;7016;48.172;8.058;2023-09-08T07:09:27;17.27;;;12.77;;
13891;SDS011;7016;48.172;8.058;2023-09-08T07:11:53;16.73;;;13.02;;
13891;SDS011;7016;48.172;8.058;2023-09-08T07:14:19;18.52;;;12.70;;
13891;SDS011;7016;48.172;8.058;2023-09-08T07:16:45;12.40;;;11.05;;
13891;SDS011;7016;48.172;8.058;2023-09-08T07:19:10;15.05;;;11.95;;
13891;SDS011;7016;48.172;8.058;2023-09-08T07:21:36;11.85;;;10.35;;
13891;SDS011;7016;48.172;8.058;2023-09-08T07:24:02;14.98;;;11.20;;
13891;SDS011;7016;48.172;8.058;2023-09-08T07:26:28;14.43;;;11.07;;
13891;SDS011;7016;48.172;8.058;2023-09-08T07:28:53;14.27;;;10.80;;
13891;SDS011;7016;48.172;8.058;2023-09-08T07:31:22;13.00;;;10.13;;
13891;SDS011;7016;48.172;8.058;2023-09-08T07:33:48;18.00;;;10.85;;
13891;SDS011;7016;48.172;8.058;2023-09-08T07:36:13;12.30;;;10.50;;
13891;SDS011;7016;48.172;8.058;2023-09-08T07:38:40;12.80;;;11.18;;
13891;SDS011;7016;48.172;8.058;2023-09-08T07:41:06;14.05;;;10.30;;
13891;SDS011;7016;48.172;8.058;2023-09-08T07:43:31;12.63;;;10.35;;
13891;SDS011;7016;48.172;8.058;2023-09-08T07:45:57;16.50;;;10.13;;
13891;SDS011;7016;48.172;8.058;2023-09-08T07:48:23;11.05;;;9.88;;
13891;SDS011;7016;48.172;8.058;2023-09-08T07:50:48;13.95;;;10.07;;
13891;SDS011;7016;48.172;8.058;2023-09-08T07:53:14;14.70;;;10.20;;
13891;SDS011;7016;48.172;8.058;2023-09-08T07:55:40;10.60;;;9.38;;
13891;SDS011;7016;48.172;8.058;2023-09-08T07:58:06;13.50;;;9.45;;
13891;SDS011;7016;48.172;8.058;2023-09-08T08:00:33;12.82;;;10.20;;
13891;SDS011;7016;48.172;8.058;2023-09-08T08:02:58;16.17;;;9.45;;
13891;SDS011;7016;48.172;8.058;2023-09-08T08:05:24;13.80;;;9.73;;
13891;SDS011;7016;48.172;8.058;2023-09-08T08:07:51;12.80;;;8.95;;
13891;SDS011;7016;48.172;8.058;2023-09-08T08:10:18;16.50;;;9.05;;
13891;SDS011;7016;48.172;8.058;2023-09-08T08:12:44;12.57;;;8.50;;
13891;SDS011;7016;48.172;8.058;2023-09-08T08:15:10;8.88;;;7.95;;
13891;SDS011;7016;48.172;8.058;2023-09-08T08:17:36;12.45;;;8.93;;
13891;SDS011;7016;48.172;8.058;2023-09-08T08:20:03;11.35;;;7.90;;
13891;SDS011;7016;48.172;8.058;2023-09-08T08:22:42;13.77;;;7.60;;
13891;SDS011;7016;48.172;8.058;2023-09-08T08:25:11;14.50;;;8.50;;
13891;SDS011;7016;48.172;8.058;2023-09-08T08:27:40;20.17;;;10.02;;
13891;SDS011;7016;48.172;8.058;2023-09-08T08:30:06;13.15;;;8.70;;
13891;SDS011;7016;48.172;8.058;2023-09-08T08:32:33;14.85;;;9.18;;
13891;SDS011;7016;48.172;8.058;2023-09-08T08:34:59;13.63;;;8.73;;
13891;SDS011;7016;48.172;8.058;2023-09-08T08:37:25;12.48;;;8.50;;
13891;SDS011;7016;48.172;8.058;2023-09-08T08:39:50;12.25;;;8.50;;
13891;SDS011;7016;48.172;8.058;2023-09-08T08:42:16;10.48;;;7.47;;
13891;SDS011;7016;48.172;8.058;2023-09-08T08:44:42;13.55;;;7.60;;
13891;SDS011;7016;48.172;8.058;2023-09-08T08:47:10;12.40;;;7.72;;
13891;SDS011;7016;48.172;8.058;2023-09-08T08:49:36;10.20;;;7.47;;
13891;SDS011;7016;48.172;8.058;2023-09-08T08:52:04;13.27;;;7.63;;
13891;SDS011;7016;48.172;8.058;2023-09-08T08:54:34;14.50;;;7.40;;
13891;SDS011;7016;48.172;8.058;2023-09-08T08:57:03;10.82;;;6.80;;
13891;SDS011;7016;48.172;8.058;2023-09-08T08:59:30;9.25;;;7.28;;
13891;SDS011;7016;48.172;8.058;2023-09-08T09:01:57;10.85;;;6.80;;
13891;SDS011;7016;48.172;8.058;2023-09-08T09:04:24;9.40;;;6.75;;
13891;SDS011;7016;48.172;8.058;2023-09-08T09:06:50;8.07;;;6.97;;
13891;SDS011;7016;48.172;8.058;2023-09-08T09:09:18;13.23;;;6.95;;
13891;SDS011;7016;48.172;8.058;2023-09-08T09:11:44;14.77;;;6.30;;
13891;SDS011;7016;48.172;8.058;2023-09-08T09:14:10;11.45;;;6.65;;
13891;SDS011;7016;48.172;8.058;2023-09-08T09:16:40;12.13;;;6.45;;
13891;SDS011;7016;48.172;8.058;2023-09-08T09:19:09;11.13;;;6.72;;
13891;SDS011;7016;48.172;8.058;2023-09-08T09:21:51;15.13;;;6.30;;
13891;SDS011;7016;48.172;8.058;2023-09-08T09:24:32;11.10;;;6.80;;
13891;SDS011;7016;48.172;8.058;2023-09-08T09:27:02;7.65;;;6.40;;
13891;SDS011;7016;48.172;8.058;2023-09-08T09:29:30;10.73;;;6.25;;
13891;SDS011;7016;48.172;8.058;2023-09-08T09:31:57;9.20;;;5.95;;
13891;SDS011;7016;48.172;8.058;2023-09-08T09:34:34;8.40;;;6.05;;
13891;SDS011;7016;48.172;8.058;2023-09-08T09:37:00;13.10;;;6.20;;
13891;SDS011;7016;48.172;8.058;2023-09-08T09:39:25;7.85;;;5.82;;
13891;SDS011;7016;48.172;8.058;2023-09-08T09:41:55;9.70;;;5.53;;
13891;SDS011;7016;48.172;8.058;2023-09-08T09:44:22;9.80;;;5.93;;
13891;SDS011;7016;48.172;8.058;2023-09-08T09:46:51;7.85;;;5.55;;
13891;SDS011;7016;48.172;8.058;2023-09-08T09:49:18;9.00;;;5.80;;
13891;SDS011;7016;48.172;8.058;2023-09-08T09:51:45;6.80;;;5.55;;
13891;SDS011;7016;48.172;8.058;2023-09-08T09:54:15;7.53;;;5.18;;
13891;SDS011;7016;48.172;8.058;2023-09-08T09:56:42;7.35;;;5.22;;
13891;SDS011;7016;48.172;8.058;2023-09-08T09:59:09;7.80;;;5.40;;
13891;SDS011;7016;48.172;8.058;2023-09-08T10:01:36;10.55;;;5.68;;
13891;SDS011;7016;48.172;8.058;2023-09-08T10:04:03;9.63;;;5.70;;
13891;SDS011;7016;48.172;8.058;2023-09-08T10:06:34;7.07;;;5.68;;
13891;SDS011;7016;48.172;8.058;2023-09-08T10:09:01;11.57;;;6.63;;
13891;SDS011;7016;48.172;8.058;2023-09-08T10:11:32;7.78;;;5.80;;
13891;SDS011;7016;48.172;8.058;2023-09-08T10:14:25;10.13;;;5.47;;
13891;SDS011;7016;48.172;8.058;2023-09-08T10:16:53;8.10;;;5.43;;
13891;SDS011;7016;48.172;8.058;2023-09-08T10:19:24;10.30;;;6.18;;
13891;SDS011;7016;48.172;8.058;2023-09-08T10:21:50;7.85;;;5.13;;
13891;SDS011;7016;48.172;8.058;2023-09-08T10:24:29;7.15;;;5.65;;
13891;SDS011;7016;48.172;8.058;2023-09-08T10:29:28;8.57;;;5.72;;
13891;SDS011;7016;48.172;8.058;2023-09-08T10:31:56;7.18;;;4.78;;
13891;SDS011;7016;48.172;8.058;2023-09-08T10:34:23;9.52;;;5.55;;
13891;SDS011;7016;48.172;8.058;2023-09-08T10:36:51;6.40;;;4.70;;
13891;SDS011;7016;48.172;8.058;2023-09-08T10:39:27;9.57;;;5.65;;
13891;SDS011;7016;48.172;8.058;2023-09-08T10:42:29;7.10;;;4.57;;
13891;SDS011;7016;48.172;8.058;2023-09-08T10:50:08;7.22;;;4.93;;
13891;SDS011;7016;48.172;8.058;2023-09-08T10:52:41;12.52;;;4.45;;
13891;SDS011;7016;48.172;8.058;2023-09-08T10:55:07;8.65;;;4.93;;
13891;SDS011;7016;48.172;8.058;2023-09-08T10:57:33;6.65;;;5.00;;
13891;SDS011;7016;48.172;8.058;2023-09-08T11:00:00;8.88;;;5.10;;
13891;SDS011;7016;48.172;8.058;2023-09-08T11:02:40;8.95;;;4.88;;
13891;SDS011;7016;48.172;8.058;2023-09-08T11:05:08;7.38;;;4.80;;
13891;SDS011;7016;48.172;8.058;2023-09-08T11:07:36;8.13;;;5.13;;
13891;SDS011;7016;48.172;8.058;2023-09-08T11:10:02;13.85;;;5.05;;
13891;SDS011;7016;48.172;8.058;2023-09-08T11:12:29;7.55;;;4.78;;
13891;SDS011;7016;48.172;8.058;2023-09-08T11:14:56;12.68;;;5.15;;
13891;SDS011;7016;48.172;8.058;2023-09-08T11:17:25;10.30;;;4.80;;
13891;SDS011;7016;48.172;8.058;2023-09-08T11:19:54;6.93;;;4.95;;
13891;SDS011;7016;48.172;8.058;2023-09-08T11:22:21;8.70;;;4.75;;
13891;SDS011;7016;48.172;8.058;2023-09-08T11:24:49;9.43;;;4.55;;
13891;SDS011;7016;48.172;8.058;2023-09-08T11:27:17;9.98;;;4.70;;
13891;SDS011;7016;48.172;8.058;2023-09-08T11:29:43;7.10;;;4.60;;
13891;SDS011;7016;48.172;8.058;2023-09-08T11:32:09;8.10;;;4.15;;
13891;SDS011;7016;48.172;8.058;2023-09-08T11:34:36;8.50;;;4.93;;
13891;SDS011;7016;48.172;8.058;2023-09-08T11:37:11;10.02;;;5.07;;
13891;SDS011;7016;48.172;8.058;2023-09-08T11:39:42;7.13;;;4.63;;
13891;SDS011;7016;48.172;8.058;2023-09-08T11:42:08;8.07;;;4.60;;
13891;SDS011;7016;48.172;8.058;2023-09-08T11:44:37;5.57;;;4.68;;
13891;SDS011;7016;48.172;8.058;2023-09-08T11:47:03;5.97;;;4.55;;
13891;SDS011;7016;48.172;8.058;2023-09-08T11:49:37;8.93;;;4.55;;
13891;SDS011;7016;48.172;8.058;2023-09-08T11:52:04;8.70;;;4.90;;
13891;SDS011;7016;48.172;8.058;2023-09-08T11:54:31;6.97;;;4.20;;
13891;SDS011;7016;48.172;8.058;2023-09-08T11:56:59;6.95;;;5.10;;
13891;SDS011;7016;48.172;8.058;2023-09-08T11:59:26;9.32;;;4.38;;
13891;SDS011;7016;48.172;8.058;2023-09-08T12:01:53;6.10;;;4.65;;
13891;SDS011;7016;48.172;8.058;2023-09-08T12:04:21;5.97;;;4.30;;
13891;SDS011;7016;48.172;8.058;2023-09-08T12:06:50;11.63;;;4.70;;
13891;SDS011;7016;48.172;8.058;2023-09-08T12:09:17;6.97;;;4.63;;
13891;SDS011;7016;48.172;8.058;2023-09-08T12:11:43;9.82;;;4.68;;
13891;SDS011;7016;48.172;8.058;2023-09-08T12:14:12;6.55;;;4.60;;
13891;SDS011;7016;48.172;8.058;2023-09-08T12:16:40;9.57;;;4.80;;
13891;SDS011;7016;48.172;8.058;2023-09-08T12:19:06;6.38;;;4.50;;
13891;SDS011;7016;48.172;8.058;2023-09-08T12:22:16;7.07;;;4.68;;
13891;SDS011;7016;48.172;8.058;2023-09-08T12:27:36;7.80;;;4.85;;
13891;SDS011;7016;48.172;8.058;2023-09-08T12:30:02;7.30;;;4.78;;
13891;SDS011;7016;48.172;8.058;2023-09-08T12:32:33;10.50;;;4.50;;
13891;SDS011;7016;48.172;8.058;2023-09-08T12:34:59;7.50;;;4.65;;
13891;SDS011;7016;48.172;8.058;2023-09-08T12:37:28;8.02;;;4.75;;
13891;SDS011;7016;48.172;8.058;2023-09-08T12:39:55;9.10;;;4.90;;
13891;SDS011;7016;48.172;8.058;2023-09-08T12:42:21;6.85;;;5.28;;
13891;SDS011;7016;48.172;8.058;2023-09-08T12:44:51;8.68;;;4.30;;
13891;SDS011;7016;48.172;8.058;2023-09-08T12:47:18;5.63;;;4.65;;
13891;SDS011;7016;48.172;8.058;2023-09-08T12:49:43;6.60;;;4.43;;
13891;SDS011;7016;48.172;8.058;2023-09-08T12:52:09;7.10;;;4.38;;
13891;SDS011;7016;48.172;8.058;2023-09-08T12:54:35;12.77;;;5.00;;
13891;SDS011;7016;48.172;8.058;2023-09-08T12:57:01;6.93;;;4.20;;
13891;SDS011;7016;48.172;8.058;2023-09-08T12:59:27;7.00;;;4.25;;
13891;SDS011;7016;48.172;8.058;2023-09-08T13:01:52;9.95;;;4.22;;
13891;SDS011;7016;48.172;8.058;2023-09-08T13:04:18;5.80;;;3.95;;
13891;SDS011;7016;48.172;8.058;2023-09-08T13:06:44;10.45;;;3.88;;
13891;SDS011;7016;48.172;8.058;2023-09-08T13:09:10;6.88;;;4.25;;
13891;SDS011;7016;48.172;8.058;2023-09-08T13:11:36;7.78;;;4.00;;
13891;SDS011;7016;48.172;8.058;2023-09-08T13:14:02;5.55;;;3.60;;
13891;SDS011;7016;48.172;8.058;2023-09-08T13:16:28;5.40;;;3.58;;
13891;SDS011;7016;48.172;8.058;2023-09-08T13:18:54;9.27;;;3.65;;
13891;SDS011;7016;48.172;8.058;2023-09-08T13:21:20;5.90;;;3.40;;
13891;SDS011;7016;48.172;8.058;2023-09-08T13:23:46;6.68;;;3.30;;
13891;SDS011;7016;48.172;8.058;2023-09-08T13:26:11;5.05;;;3.33;;
13891;SDS011;7016;48.172;8.058;2023-09-08T13:28:37;6.25;;;4.00;;
13891;SDS011;7016;48.172;8.058;2023-09-08T13:31:03;8.07;;;3.58;;
13891;SDS011;7016;48.172;8.058;2023-09-08T13:33:28;9.85;;;3.58;;
13891;SDS011;7016;48.172;8.058;2023-09-08T13:35:54;8.35;;;3.70;;
13891;SDS011;7016;48.172;8.058;2023-09-08T13:38:26;7.22;;;3.88;;
13891;SDS011;7016;48.172;8.058;2023-09-08T13:40:51;5.43;;;3.10;;
13891;SDS011;7016;48.172;8.058;2023-09-08T13:43:18;7.57;;;3.88;;
13891;SDS011;7016;48.172;8.058;2023-09-08T13:45:44;7.10;;;3.42;;
13891;SDS011;7016;48.172;8.058;2023-09-08T13:48:09;6.60;;;3.70;;
13891;SDS011;7016;48.172;8.058;2023-09-08T13:50:37;7.93;;;3.50;;
13891;SDS011;7016;48.172;8.058;2023-09-08T13:53:03;6.47;;;3.47;;
13891;SDS011;7016;48.172;8.058;2023-09-08T13:55:29;8.73;;;3.92;;
13891;SDS011;7016;48.172;8.058;2023-09-08T13:57:55;11.30;;;3.25;;
13891;SDS011;7016;48.172;8.058;2023-09-08T14:00:21;6.75;;;3.45;;
13891;SDS011;7016;48.172;8.058;2023-09-08T14:02:46;7.22;;;3.40;;
13891;SDS011;7016;48.172;8.058;2023-09-08T14:05:12;7.63;;;3.78;;
13891;SDS011;7016;48.172;8.058;2023-09-08T14:07:38;5.78;;;3.33;;
13891;SDS011;7016;48.172;8.058;2023-09-08T14:10:03;7.53;;;3.45;;
13891;SDS011;7016;48.172;8.058;2023-09-08T14:12:34;6.82;;;3.50;;
13891;SDS011;7016;48.172;8.058;2023-09-08T14:15:00;5.57;;;3.53;;
13891;SDS011;7016;48.172;8.058;2023-09-08T14:17:25;6.50;;;3.22;;
13891;SDS011;7016;48.172;8.058;2023-09-08T14:19:51;7.93;;;3.42;;
13891;SDS011;7016;48.172;8.058;2023-09-08T14:22:17;8.85;;;3.50;;
13891;SDS011;7016;48.172;8.058;2023-09-08T14:24:43;9.38;;;3.67;;
13891;SDS011;7016;48.172;8.058;2023-09-08T14:27:08;8.68;;;3.30;;
13891;SDS011;7016;48.172;8.058;2023-09-08T14:29:34;4.85;;;3.05;;
13891;SDS011;7016;48.172;8.058;2023-09-08T14:32:00;9.07;;;2.80;;
13891;SDS011;7016;48.172;8.058;2023-09-08T14:34:25;8.27;;;3.50;;
13891;SDS011;7016;48.172;8.058;2023-09-08T14:36:51;7.97;;;3.38;;
13891;SDS011;7016;48.172;8.058;2023-09-08T14:39:17;6.47;;;3.40;;
13891;SDS011;7016;48.172;8.058;2023-09-08T14:41:47;6.80;;;3.47;;
13891;SDS011;7016;48.172;8.058;2023-09-08T14:44:15;8.43;;;3.03;;
13891;SDS011;7016;48.172;8.058;2023-09-08T14:46:41;6.93;;;3.35;;
13891;SDS011;7016;48.172;8.058;2023-09-08T14:49:06;8.02;;;3.10;;
13891;SDS011;7016;48.172;8.058;2023-09-08T14:51:32;8.48;;;3.50;;
13891;SDS011;7016;48.172;8.058;2023-09-08T14:53:58;4.57;;;2.85;;
13891;SDS011;7016;48.172;8.058;2023-09-08T14:56:23;8.27;;;3.70;;
13891;SDS011;7016;48.172;8.058;2023-09-08T14:58:49;5.22;;;3.20;;
13891;SDS011;7016;48.172;8.058;2023-09-08T15:01:14;8.20;;;3.78;;
13891;SDS011;7016;48.172;8.058;2023-09-08T15:03:40;6.63;;;3.63;;